Corto Maltese — 9HB3147 — position and weather

sailwx.info

Track history (hours):
 
Tides and Currents Weather Stations Pressure Air Temp Water Temp Dewpoint Dewpoint Depression Visibility Wind Speed Wind Dir Waves Ship Positions

Corto Maltese

Last reported at 2018-Jun-22 14:57 UTC. Time now 2018-Jun-22 15:23 UTC.
Position N 38°51' E 001°26'.

Length 37 m; draft 3.2 m.

Type: Sailing vessel. MMSI: 229390000.

Date/timePositionNaut miles runAvg speedWind from/ knotsBaromVisibWave heightAir tempDewpointWater temp
2018-Jun-22 14:57N 38°51' E 001°26'4 0.9
2018-Jun-22 10:00N 38°46' E 001°25'4 8.3
2018-Jun-22 09:29N 38°51' E 001°26'4 8.6
2018-Jun-22 09:00N 38°55' E 001°28'0 0.5
2018-Jun-22 08:30N 38°55' E 001°28'0 0.0
2018-Jun-21 20:25N 38°55' E 001°28'0 0.0
2018-Jun-21 19:54N 38°55' E 001°28'0 0.0
2018-Jun-21 19:30N 38°55' E 001°28'0 0.0
2018-Jun-21 18:59N 38°55' E 001°28'0 0.0
2018-Jun-21 18:26N 38°55' E 001°28'0 0.0
2018-Jun-21 16:39N 38°55' E 001°28'0 0.0
2018-Jun-21 16:26N 38°55' E 001°28'0 0.0
2018-Jun-21 16:00N 38°55' E 001°28'0 0.5
2018-Jun-21 15:21N 38°55' E 001°28'  
2018-Jun-18 02:17N 38°55' E 001°28'0 0.0
2018-Jun-17 23:50N 38°55' E 001°28'0 0.0
2018-Jun-17 23:20N 38°55' E 001°28'0 0.0
2018-Jun-17 22:20N 38°55' E 001°28'9 1.0
2018-Jun-17 13:19N 38°46' E 001°25'4 0.2
2018-Jun-16 10:19N 38°50' E 001°26'3 9.0
2018-Jun-16 09:59N 38°48' E 001°24'  
2018-Jun-13 14:58N 38°59' E 001°36'4 7.8
2018-Jun-13 14:30N 38°56' E 001°32'4 7.9
2018-Jun-13 14:00N 38°54' E 001°28'0 0.1
2018-Jun-13 12:11N 38°55' E 001°28'0 0.0
2018-Jun-13 08:53N 38°55' E 001°28'0 0.0
2018-Jun-13 08:20N 38°55' E 001°28'0 0.0
2018-Jun-13 07:56N 38°55' E 001°28'0 0.0
2018-Jun-13 05:50N 38°55' E 001°28'0 0.0
2018-Jun-13 05:26N 38°55' E 001°28'0 0.0
2018-Jun-13 04:44N 38°55' E 001°28'0 0.0
2018-Jun-12 23:47N 38°55' E 001°28'0 0.0
2018-Jun-12 23:17N 38°55' E 001°28'0 0.0
2018-Jun-12 22:53N 38°55' E 001°28'  
Track history (hours):
 
Tides and Currents Weather Stations Pressure Air Temp Water Temp Dewpoint Dewpoint Depression Visibility Wind Speed Wind Dir Waves Ship Positions

Corto Maltese

Last reported at 2018-Jun-22 14:57 UTC. Time now 2018-Jun-22 15:23 UTC.
Position N 38°51' E 001°26'.

Length 37 m; draft 3.2 m.

Type: Sailing vessel. MMSI: 229390000.

Date/timePositionNaut miles runAvg speedWind from/ knotsBaromVisibWave heightAir tempDewpointWater temp
2018-Jun-22 14:57N 38°51' E 001°26'4 0.9
2018-Jun-22 10:00N 38°46' E 001°25'4 8.3
2018-Jun-22 09:29N 38°51' E 001°26'4 8.6
2018-Jun-22 09:00N 38°55' E 001°28'0 0.5
2018-Jun-22 08:30N 38°55' E 001°28'0 0.0
2018-Jun-21 20:25N 38°55' E 001°28'0 0.0
2018-Jun-21 19:54N 38°55' E 001°28'0 0.0
2018-Jun-21 19:30N 38°55' E 001°28'0 0.0
2018-Jun-21 18:59N 38°55' E 001°28'0 0.0
2018-Jun-21 18:26N 38°55' E 001°28'0 0.0
2018-Jun-21 16:39N 38°55' E 001°28'0 0.0
2018-Jun-21 16:26N 38°55' E 001°28'0 0.0
2018-Jun-21 16:00N 38°55' E 001°28'0 0.5
2018-Jun-21 15:21N 38°55' E 001°28'  
2018-Jun-18 02:17N 38°55' E 001°28'0 0.0
2018-Jun-17 23:50N 38°55' E 001°28'0 0.0
2018-Jun-17 23:20N 38°55' E 001°28'0 0.0
2018-Jun-17 22:20N 38°55' E 001°28'9 1.0
2018-Jun-17 13:19N 38°46' E 001°25'4 0.2
2018-Jun-16 10:19N 38°50' E 001°26'3 9.0
2018-Jun-16 09:59N 38°48' E 001°24'  
2018-Jun-13 14:58N 38°59' E 001°36'4 7.8
2018-Jun-13 14:30N 38°56' E 001°32'4 7.9
2018-Jun-13 14:00N 38°54' E 001°28'0 0.1
2018-Jun-13 12:11N 38°55' E 001°28'0 0.0
2018-Jun-13 08:53N 38°55' E 001°28'0 0.0
2018-Jun-13 08:20N 38°55' E 001°28'0 0.0
2018-Jun-13 07:56N 38°55' E 001°28'0 0.0
2018-Jun-13 05:50N 38°55' E 001°28'0 0.0
2018-Jun-13 05:26N 38°55' E 001°28'0 0.0
2018-Jun-13 04:44N 38°55' E 001°28'0 0.0
2018-Jun-12 23:47N 38°55' E 001°28'0 0.0
2018-Jun-12 23:17N 38°55' E 001°28'0 0.0
2018-Jun-12 22:53N 38°55' E 001°28'  

Dump ship's entire track history